Groton New London Airport
KGON : rendu visible

Aérodrome :











RETROUVEZ-NOUS SUR...

 
LOGIN :

S'inscrire | Disclaimer

   EN    FR    IT 

 









Légende :    VFR   VFR Marginal   IFR   IFR Intensif   IFR Très Intensif
Visi : 
Plafond : 
>= 8 km
>= 3000ft
5 à 8 km
1000 à 3000 ft
1500m à 5 km
500 à 1000 ft
800 à 1500m
200 à 500 ft
< 800m
< 200 ft
Symboles :   Orages  Brouillard  Fortes neiges  Fortes précipitations  Vent > 20 kt






- Altitude de l'aérodrome : 9 ft
- Code IATA : GON


KGON - Groton New London

DERNIER METAR :
  • 200356Z AUTO 33004KT 10SM OVC023 06/02 A2984 RMK AO2 SLP105 T00560022

METARs EXPIRÉS :
  • 200256Z 34003KT 10SM OVC023 06/02 A2984 RMK AO2 SLP104 T00610022 58001
  • 200156Z 32006KT 10SM OVC023 07/03 A2986 RMK AO2 SLP110 T00670033

TAF KGON
Valide du 20 à 03h jusqu'au 21 à 00h UTC


200233Z 2003/2024 33005KT P6SM OVC020
TEMPO 2003/2005 OVC035
FM200900 36005KT P6SM BKN015
FM201600 34009KT 6SM BR SCT015 OVC018
FM202000 33010KT 4SM BR SCT021 BKN030



MET'MAP, la Météo Aéronautique d'un coup d'oeil ! - Copyright ORBIFLY Décembre 2007 - Disclaimer

ORBIFLY MET'MAP TEAM :

Programmation & Développement : Alexandra Zaïnal
Conception & Développement : Baudouin d'Aumeries
Co-Programmation & Développement : Marc-Olivier Méhu
Soutien technique & logistique : Manuel Goepfert

Contact : metmap@orbifly.com




SOURCES & CREDITS :

   NOAA       Earth
Advisory